sensor_id;sensor_type;location;lat;lon;timestamp;P1;durP1;ratioP1;P2;durP2;ratioP2
31638;SDS011;18248;51.522;7.020;2023-06-01T00:00:09;9.32;;;4.20;;
31638;SDS011;18248;51.522;7.020;2023-06-01T00:03:08;11.65;;;4.63;;
31638;SDS011;18248;51.522;7.020;2023-06-01T00:06:07;9.20;;;4.03;;
31638;SDS011;18248;51.522;7.020;2023-06-01T00:09:06;11.05;;;4.57;;
31638;SDS011;18248;51.522;7.020;2023-06-01T00:12:05;8.35;;;4.35;;
31638;SDS011;18248;51.522;7.020;2023-06-01T00:15:04;11.73;;;4.40;;
31638;SDS011;18248;51.522;7.020;2023-06-01T00:18:05;11.55;;;4.35;;
31638;SDS011;18248;51.522;7.020;2023-06-01T00:21:03;7.30;;;4.28;;
31638;SDS011;18248;51.522;7.020;2023-06-01T00:24:02;7.72;;;4.05;;
31638;SDS011;18248;51.522;7.020;2023-06-01T00:27:01;12.88;;;4.78;;
31638;SDS011;18248;51.522;7.020;2023-06-01T00:29:59;8.52;;;4.53;;
31638;SDS011;18248;51.522;7.020;2023-06-01T00:32:58;10.63;;;5.80;;
31638;SDS011;18248;51.522;7.020;2023-06-01T00:35:56;13.80;;;5.25;;
31638;SDS011;18248;51.522;7.020;2023-06-01T00:38:55;12.60;;;5.30;;
31638;SDS011;18248;51.522;7.020;2023-06-01T00:41:59;18.27;;;6.35;;
31638;SDS011;18248;51.522;7.020;2023-06-01T00:44:58;10.85;;;5.38;;
31638;SDS011;18248;51.522;7.020;2023-06-01T00:47:56;10.20;;;4.97;;
31638;SDS011;18248;51.522;7.020;2023-06-01T00:50:56;13.68;;;4.70;;
31638;SDS011;18248;51.522;7.020;2023-06-01T00:53:56;10.23;;;4.93;;
31638;SDS011;18248;51.522;7.020;2023-06-01T00:56:55;13.07;;;6.30;;
31638;SDS011;18248;51.522;7.020;2023-06-01T00:59:54;12.98;;;5.75;;
31638;SDS011;18248;51.522;7.020;2023-06-01T01:02:53;10.27;;;6.05;;
31638;SDS011;18248;51.522;7.020;2023-06-01T01:05:52;9.82;;;5.30;;
31638;SDS011;18248;51.522;7.020;2023-06-01T01:12:35;12.93;;;5.55;;
31638;SDS011;18248;51.522;7.020;2023-06-01T01:19:29;10.85;;;6.55;;
31638;SDS011;18248;51.522;7.020;2023-06-01T01:22:52;11.52;;;6.47;;
31638;SDS011;18248;51.522;7.020;2023-06-01T01:29:40;16.45;;;7.68;;
31638;SDS011;18248;51.522;7.020;2023-06-01T01:32:40;12.07;;;5.82;;
31638;SDS011;18248;51.522;7.020;2023-06-01T01:35:39;10.75;;;6.28;;
31638;SDS011;18248;51.522;7.020;2023-06-01T01:38:41;11.50;;;5.70;;
31638;SDS011;18248;51.522;7.020;2023-06-01T01:41:39;14.85;;;6.32;;
31638;SDS011;18248;51.522;7.020;2023-06-01T01:44:38;14.80;;;7.25;;
31638;SDS011;18248;51.522;7.020;2023-06-01T01:47:41;11.43;;;7.15;;
31638;SDS011;18248;51.522;7.020;2023-06-01T01:50:49;18.70;;;8.93;;
31638;SDS011;18248;51.522;7.020;2023-06-01T01:53:51;13.68;;;6.82;;
31638;SDS011;18248;51.522;7.020;2023-06-01T01:56:53;12.77;;;6.88;;
31638;SDS011;18248;51.522;7.020;2023-06-01T02:02:54;9.52;;;6.25;;
31638;SDS011;18248;51.522;7.020;2023-06-01T02:05:53;14.30;;;6.30;;
31638;SDS011;18248;51.522;7.020;2023-06-01T02:08:51;16.67;;;8.70;;
31638;SDS011;18248;51.522;7.020;2023-06-01T02:11:51;13.90;;;7.88;;
31638;SDS011;18248;51.522;7.020;2023-06-01T02:14:49;14.63;;;8.07;;
31638;SDS011;18248;51.522;7.020;2023-06-01T02:17:48;17.13;;;8.35;;
31638;SDS011;18248;51.522;7.020;2023-06-01T02:20:46;14.55;;;8.25;;
31638;SDS011;18248;51.522;7.020;2023-06-01T02:23:45;17.42;;;8.77;;
31638;SDS011;18248;51.522;7.020;2023-06-01T02:26:45;17.63;;;8.93;;
31638;SDS011;18248;51.522;7.020;2023-06-01T02:29:46;17.00;;;10.13;;
31638;SDS011;18248;51.522;7.020;2023-06-01T02:32:45;19.90;;;10.95;;
31638;SDS011;18248;51.522;7.020;2023-06-01T02:35:46;23.48;;;10.75;;
31638;SDS011;18248;51.522;7.020;2023-06-01T02:38:44;21.88;;;10.38;;
31638;SDS011;18248;51.522;7.020;2023-06-01T02:41:44;19.48;;;10.75;;
31638;SDS011;18248;51.522;7.020;2023-06-01T02:44:43;26.05;;;11.82;;
31638;SDS011;18248;51.522;7.020;2023-06-01T02:47:41;21.00;;;11.95;;
31638;SDS011;18248;51.522;7.020;2023-06-01T02:50:42;23.08;;;13.50;;
31638;SDS011;18248;51.522;7.020;2023-06-01T02:53:41;22.05;;;11.93;;
31638;SDS011;18248;51.522;7.020;2023-06-01T02:56:41;26.65;;;15.13;;
31638;SDS011;18248;51.522;7.020;2023-06-01T02:59:40;25.27;;;15.05;;
31638;SDS011;18248;51.522;7.020;2023-06-01T03:02:38;23.38;;;14.68;;
31638;SDS011;18248;51.522;7.020;2023-06-01T03:05:38;22.45;;;12.63;;
31638;SDS011;18248;51.522;7.020;2023-06-01T03:08:37;35.65;;;15.98;;
31638;SDS011;18248;51.522;7.020;2023-06-01T03:11:36;27.63;;;14.63;;
31638;SDS011;18248;51.522;7.020;2023-06-01T03:14:34;24.50;;;15.52;;
31638;SDS011;18248;51.522;7.020;2023-06-01T03:17:33;29.60;;;16.73;;
31638;SDS011;18248;51.522;7.020;2023-06-01T03:20:32;24.52;;;14.90;;
31638;SDS011;18248;51.522;7.020;2023-06-01T03:23:31;26.48;;;15.55;;
31638;SDS011;18248;51.522;7.020;2023-06-01T03:26:29;21.42;;;13.88;;
31638;SDS011;18248;51.522;7.020;2023-06-01T03:29:28;26.23;;;15.50;;
31638;SDS011;18248;51.522;7.020;2023-06-01T03:32:26;31.45;;;17.88;;
31638;SDS011;18248;51.522;7.020;2023-06-01T03:35:25;33.03;;;18.70;;
31638;SDS011;18248;51.522;7.020;2023-06-01T03:38:24;26.60;;;17.52;;
31638;SDS011;18248;51.522;7.020;2023-06-01T03:41:23;29.50;;;16.88;;
31638;SDS011;18248;51.522;7.020;2023-06-01T03:44:21;30.55;;;19.35;;
31638;SDS011;18248;51.522;7.020;2023-06-01T03:47:20;29.42;;;17.58;;
31638;SDS011;18248;51.522;7.020;2023-06-01T03:50:18;34.25;;;19.10;;
31638;SDS011;18248;51.522;7.020;2023-06-01T03:53:17;31.15;;;19.35;;
31638;SDS011;18248;51.522;7.020;2023-06-01T03:56:15;31.08;;;20.05;;
31638;SDS011;18248;51.522;7.020;2023-06-01T03:59:14;28.70;;;20.17;;
31638;SDS011;18248;51.522;7.020;2023-06-01T04:02:13;29.35;;;19.65;;
31638;SDS011;18248;51.522;7.020;2023-06-01T04:05:12;28.25;;;17.73;;
31638;SDS011;18248;51.522;7.020;2023-06-01T04:08:14;34.03;;;19.13;;
31638;SDS011;18248;51.522;7.020;2023-06-01T04:11:17;24.92;;;15.27;;
31638;SDS011;18248;51.522;7.020;2023-06-01T04:14:16;27.15;;;13.65;;
31638;SDS011;18248;51.522;7.020;2023-06-01T04:17:14;19.30;;;12.95;;
31638;SDS011;18248;51.522;7.020;2023-06-01T04:20:13;26.58;;;14.38;;
31638;SDS011;18248;51.522;7.020;2023-06-01T04:23:15;20.00;;;12.23;;
31638;SDS011;18248;51.522;7.020;2023-06-01T04:26:14;27.40;;;13.45;;
31638;SDS011;18248;51.522;7.020;2023-06-01T04:29:16;25.00;;;13.30;;
31638;SDS011;18248;51.522;7.020;2023-06-01T04:32:17;19.42;;;11.15;;
31638;SDS011;18248;51.522;7.020;2023-06-01T04:35:19;20.80;;;11.20;;
31638;SDS011;18248;51.522;7.020;2023-06-01T04:38:18;20.80;;;11.88;;
31638;SDS011;18248;51.522;7.020;2023-06-01T04:41:17;24.60;;;12.27;;
31638;SDS011;18248;51.522;7.020;2023-06-01T04:44:18;21.40;;;10.70;;
31638;SDS011;18248;51.522;7.020;2023-06-01T04:47:19;16.98;;;10.65;;
31638;SDS011;18248;51.522;7.020;2023-06-01T04:50:19;23.15;;;10.50;;
31638;SDS011;18248;51.522;7.020;2023-06-01T04:53:18;23.27;;;11.60;;
31638;SDS011;18248;51.522;7.020;2023-06-01T04:56:17;19.98;;;10.40;;
31638;SDS011;18248;51.522;7.020;2023-06-01T04:59:24;21.85;;;11.02;;
31638;SDS011;18248;51.522;7.020;2023-06-01T05:02:24;18.90;;;10.52;;
31638;SDS011;18248;51.522;7.020;2023-06-01T05:05:23;16.10;;;9.82;;
31638;SDS011;18248;51.522;7.020;2023-06-01T05:08:22;20.13;;;10.88;;
31638;SDS011;18248;51.522;7.020;2023-06-01T05:11:21;17.17;;;10.23;;
31638;SDS011;18248;51.522;7.020;2023-06-01T05:14:19;20.70;;;9.65;;
31638;SDS011;18248;51.522;7.020;2023-06-01T05:17:18;23.00;;;9.57;;
31638;SDS011;18248;51.522;7.020;2023-06-01T05:20:16;19.60;;;10.25;;
31638;SDS011;18248;51.522;7.020;2023-06-01T05:23:15;19.77;;;10.55;;
31638;SDS011;18248;51.522;7.020;2023-06-01T05:26:13;16.42;;;9.35;;
31638;SDS011;18248;51.522;7.020;2023-06-01T05:29:12;19.60;;;11.02;;
31638;SDS011;18248;51.522;7.020;2023-06-01T05:32:11;20.33;;;9.60;;
31638;SDS011;18248;51.522;7.020;2023-06-01T05:35:10;19.10;;;10.30;;
31638;SDS011;18248;51.522;7.020;2023-06-01T05:38:08;14.02;;;9.48;;
31638;SDS011;18248;51.522;7.020;2023-06-01T05:41:07;20.27;;;9.90;;
31638;SDS011;18248;51.522;7.020;2023-06-01T05:44:06;17.27;;;9.43;;
31638;SDS011;18248;51.522;7.020;2023-06-01T05:47:05;18.33;;;9.80;;
31638;SDS011;18248;51.522;7.020;2023-06-01T05:50:04;17.60;;;10.38;;
31638;SDS011;18248;51.522;7.020;2023-06-01T05:53:03;18.77;;;10.63;;
31638;SDS011;18248;51.522;7.020;2023-06-01T05:56:03;17.20;;;9.88;;
31638;SDS011;18248;51.522;7.020;2023-06-01T05:59:01;19.05;;;9.95;;
31638;SDS011;18248;51.522;7.020;2023-06-01T06:02:00;19.58;;;10.40;;
31638;SDS011;18248;51.522;7.020;2023-06-01T06:04:59;15.60;;;9.48;;
31638;SDS011;18248;51.522;7.020;2023-06-01T06:07:57;16.83;;;8.90;;
31638;SDS011;18248;51.522;7.020;2023-06-01T06:10:57;21.88;;;10.48;;
31638;SDS011;18248;51.522;7.020;2023-06-01T06:13:56;16.25;;;9.68;;
31638;SDS011;18248;51.522;7.020;2023-06-01T06:16:54;19.58;;;9.60;;
31638;SDS011;18248;51.522;7.020;2023-06-01T06:19:53;20.35;;;9.98;;
31638;SDS011;18248;51.522;7.020;2023-06-01T06:22:52;18.50;;;9.10;;
31638;SDS011;18248;51.522;7.020;2023-06-01T06:25:51;17.05;;;9.82;;
31638;SDS011;18248;51.522;7.020;2023-06-01T06:28:49;16.88;;;9.30;;
31638;SDS011;18248;51.522;7.020;2023-06-01T06:31:48;22.98;;;10.13;;
31638;SDS011;18248;51.522;7.020;2023-06-01T06:34:47;21.00;;;10.48;;
31638;SDS011;18248;51.522;7.020;2023-06-01T06:37:45;19.00;;;9.60;;
31638;SDS011;18248;51.522;7.020;2023-06-01T06:40:44;20.60;;;12.35;;
31638;SDS011;18248;51.522;7.020;2023-06-01T06:43:43;20.10;;;11.27;;
31638;SDS011;18248;51.522;7.020;2023-06-01T06:46:42;17.33;;;11.73;;
31638;SDS011;18248;51.522;7.020;2023-06-01T06:49:41;20.92;;;11.70;;
31638;SDS011;18248;51.522;7.020;2023-06-01T06:52:40;16.00;;;10.50;;
31638;SDS011;18248;51.522;7.020;2023-06-01T06:55:39;19.83;;;11.13;;
31638;SDS011;18248;51.522;7.020;2023-06-01T06:58:40;18.55;;;11.07;;
31638;SDS011;18248;51.522;7.020;2023-06-01T07:01:39;19.30;;;11.60;;
31638;SDS011;18248;51.522;7.020;2023-06-01T07:04:39;23.30;;;12.48;;
31638;SDS011;18248;51.522;7.020;2023-06-01T07:07:38;23.52;;;16.35;;
31638;SDS011;18248;51.522;7.020;2023-06-01T07:10:38;27.92;;;15.18;;
31638;SDS011;18248;51.522;7.020;2023-06-01T07:13:37;24.58;;;15.98;;
31638;SDS011;18248;51.522;7.020;2023-06-01T07:16:35;29.42;;;20.05;;
31638;SDS011;18248;51.522;7.020;2023-06-01T07:19:34;28.30;;;21.02;;
31638;SDS011;18248;51.522;7.020;2023-06-01T07:22:33;27.00;;;19.75;;
31638;SDS011;18248;51.522;7.020;2023-06-01T07:25:32;34.88;;;20.92;;
31638;SDS011;18248;51.522;7.020;2023-06-01T07:28:30;26.77;;;18.92;;
31638;SDS011;18248;51.522;7.020;2023-06-01T07:31:31;32.35;;;21.20;;
31638;SDS011;18248;51.522;7.020;2023-06-01T07:34:31;26.88;;;18.98;;
31638;SDS011;18248;51.522;7.020;2023-06-01T07:37:31;29.30;;;18.08;;
31638;SDS011;18248;51.522;7.020;2023-06-01T07:40:30;34.80;;;17.65;;
31638;SDS011;18248;51.522;7.020;2023-06-01T07:43:28;31.38;;;17.00;;
31638;SDS011;18248;51.522;7.020;2023-06-01T07:46:29;28.02;;;19.85;;
31638;SDS011;18248;51.522;7.020;2023-06-01T07:49:27;26.10;;;17.52;;
31638;SDS011;18248;51.522;7.020;2023-06-01T07:52:27;31.80;;;22.17;;
31638;SDS011;18248;51.522;7.020;2023-06-01T07:55:25;25.55;;;20.73;;
31638;SDS011;18248;51.522;7.020;2023-06-01T07:58:24;29.08;;;21.15;;
31638;SDS011;18248;51.522;7.020;2023-06-01T08:01:22;32.78;;;21.65;;
31638;SDS011;18248;51.522;7.020;2023-06-01T08:04:21;28.30;;;20.63;;
31638;SDS011;18248;51.522;7.020;2023-06-01T08:07:20;26.48;;;20.95;;
31638;SDS011;18248;51.522;7.020;2023-06-01T08:10:20;27.55;;;19.35;;
31638;SDS011;18248;51.522;7.020;2023-06-01T08:13:19;30.05;;;20.70;;
31638;SDS011;18248;51.522;7.020;2023-06-01T08:16:18;24.80;;;19.73;;
31638;SDS011;18248;51.522;7.020;2023-06-01T08:19:17;26.67;;;20.00;;
31638;SDS011;18248;51.522;7.020;2023-06-01T08:22:16;23.50;;;19.55;;
31638;SDS011;18248;51.522;7.020;2023-06-01T08:25:15;21.20;;;16.38;;
31638;SDS011;18248;51.522;7.020;2023-06-01T08:28:14;22.17;;;16.67;;
31638;SDS011;18248;51.522;7.020;2023-06-01T08:31:12;21.20;;;17.48;;
31638;SDS011;18248;51.522;7.020;2023-06-01T08:34:11;25.27;;;17.40;;
31638;SDS011;18248;51.522;7.020;2023-06-01T08:37:09;25.70;;;18.27;;
31638;SDS011;18248;51.522;7.020;2023-06-01T08:40:08;24.70;;;16.75;;
31638;SDS011;18248;51.522;7.020;2023-06-01T08:46:21;18.90;;;15.45;;
31638;SDS011;18248;51.522;7.020;2023-06-01T08:49:21;24.50;;;17.80;;
31638;SDS011;18248;51.522;7.020;2023-06-01T08:52:21;23.75;;;17.63;;
31638;SDS011;18248;51.522;7.020;2023-06-01T08:55:22;29.38;;;18.55;;
31638;SDS011;18248;51.522;7.020;2023-06-01T08:58:21;25.58;;;18.30;;
31638;SDS011;18248;51.522;7.020;2023-06-01T09:01:20;26.80;;;19.88;;
31638;SDS011;18248;51.522;7.020;2023-06-01T09:04:21;25.02;;;19.05;;
31638;SDS011;18248;51.522;7.020;2023-06-01T09:07:19;29.88;;;18.65;;
31638;SDS011;18248;51.522;7.020;2023-06-01T09:10:22;27.52;;;17.65;;
31638;SDS011;18248;51.522;7.020;2023-06-01T09:13:32;26.17;;;16.10;;
31638;SDS011;18248;51.522;7.020;2023-06-01T09:16:35;20.90;;;14.25;;
31638;SDS011;18248;51.522;7.020;2023-06-01T09:19:41;18.38;;;13.38;;
31638;SDS011;18248;51.522;7.020;2023-06-01T09:22:45;22.38;;;13.07;;
31638;SDS011;18248;51.522;7.020;2023-06-01T09:25:44;21.90;;;13.32;;
31638;SDS011;18248;51.522;7.020;2023-06-01T09:28:56;24.92;;;14.93;;
31638;SDS011;18248;51.522;7.020;2023-06-01T09:31:59;20.20;;;12.52;;
31638;SDS011;18248;51.522;7.020;2023-06-01T09:39:04;21.38;;;11.50;;
31638;SDS011;18248;51.522;7.020;2023-06-01T09:42:05;17.83;;;10.75;;
31638;SDS011;18248;51.522;7.020;2023-06-01T09:45:40;20.93;;;12.47;;
31638;SDS011;18248;51.522;7.020;2023-06-01T09:48:35;23.92;;;11.95;;
31638;SDS011;18248;51.522;7.020;2023-06-01T09:51:36;20.60;;;11.82;;
31638;SDS011;18248;51.522;7.020;2023-06-01T09:54:36;21.63;;;11.85;;
31638;SDS011;18248;51.522;7.020;2023-06-01T09:57:35;21.98;;;11.77;;
31638;SDS011;18248;51.522;7.020;2023-06-01T10:00:34;20.25;;;9.93;;
31638;SDS011;18248;51.522;7.020;2023-06-01T10:03:33;18.33;;;10.38;;
31638;SDS011;18248;51.522;7.020;2023-06-01T10:06:33;22.80;;;11.15;;
31638;SDS011;18248;51.522;7.020;2023-06-01T10:09:36;22.88;;;10.10;;
31638;SDS011;18248;51.522;7.020;2023-06-01T10:12:36;24.70;;;10.23;;
31638;SDS011;18248;51.522;7.020;2023-06-01T10:15:35;20.23;;;9.23;;
31638;SDS011;18248;51.522;7.020;2023-06-01T10:18:34;19.00;;;8.85;;
31638;SDS011;18248;51.522;7.020;2023-06-01T10:21:34;18.58;;;8.70;;
31638;SDS011;18248;51.522;7.020;2023-06-01T10:24:35;17.58;;;8.98;;
31638;SDS011;18248;51.522;7.020;2023-06-01T10:27:39;17.90;;;9.85;;
31638;SDS011;18248;51.522;7.020;2023-06-01T10:30:40;16.52;;;8.55;;
31638;SDS011;18248;51.522;7.020;2023-06-01T10:33:54;20.10;;;9.18;;
31638;SDS011;18248;51.522;7.020;2023-06-01T10:39:52;18.02;;;8.88;;
31638;SDS011;18248;51.522;7.020;2023-06-01T10:42:50;20.08;;;9.13;;
31638;SDS011;18248;51.522;7.020;2023-06-01T10:45:49;16.38;;;7.88;;
31638;SDS011;18248;51.522;7.020;2023-06-01T10:48:54;16.08;;;7.55;;
31638;SDS011;18248;51.522;7.020;2023-06-01T10:52:23;24.85;;;8.88;;
31638;SDS011;18248;51.522;7.020;2023-06-01T10:55:26;16.23;;;8.80;;
31638;SDS011;18248;51.522;7.020;2023-06-01T10:58:25;18.60;;;9.02;;
31638;SDS011;18248;51.522;7.020;2023-06-01T11:01:24;24.30;;;8.38;;
31638;SDS011;18248;51.522;7.020;2023-06-01T11:04:34;22.58;;;9.63;;
31638;SDS011;18248;51.522;7.020;2023-06-01T11:07:38;16.90;;;8.68;;
31638;SDS011;18248;51.522;7.020;2023-06-01T11:10:58;19.95;;;8.30;;
31638;SDS011;18248;51.522;7.020;2023-06-01T11:14:08;13.90;;;7.15;;
31638;SDS011;18248;51.522;7.020;2023-06-01T11:17:24;16.30;;;7.28;;
31638;SDS011;18248;51.522;7.020;2023-06-01T11:20:25;16.20;;;7.15;;
31638;SDS011;18248;51.522;7.020;2023-06-01T11:23:27;18.40;;;7.40;;
31638;SDS011;18248;51.522;7.020;2023-06-01T11:26:29;18.40;;;8.30;;
31638;SDS011;18248;51.522;7.020;2023-06-01T11:29:29;15.50;;;8.00;;
31638;SDS011;18248;51.522;7.020;2023-06-01T11:32:29;15.70;;;8.52;;
31638;SDS011;18248;51.522;7.020;2023-06-01T11:35:30;13.02;;;7.05;;
31638;SDS011;18248;51.522;7.020;2023-06-01T11:38:34;14.57;;;6.70;;
31638;SDS011;18248;51.522;7.020;2023-06-01T11:41:34;19.55;;;6.72;;
31638;SDS011;18248;51.522;7.020;2023-06-01T11:44:33;13.95;;;7.43;;
31638;SDS011;18248;51.522;7.020;2023-06-01T11:47:36;13.65;;;6.93;;
31638;SDS011;18248;51.522;7.020;2023-06-01T11:50:36;13.07;;;6.85;;
31638;SDS011;18248;51.522;7.020;2023-06-01T11:53:34;12.32;;;6.68;;
31638;SDS011;18248;51.522;7.020;2023-06-01T11:56:33;19.60;;;7.72;;
31638;SDS011;18248;51.522;7.020;2023-06-01T11:59:43;12.85;;;6.88;;
31638;SDS011;18248;51.522;7.020;2023-06-01T12:02:43;13.80;;;6.57;;
31638;SDS011;18248;51.522;7.020;2023-06-01T12:05:42;16.58;;;6.97;;
31638;SDS011;18248;51.522;7.020;2023-06-01T12:08:44;14.30;;;7.10;;
31638;SDS011;18248;51.522;7.020;2023-06-01T12:11:43;15.13;;;7.28;;
31638;SDS011;18248;51.522;7.020;2023-06-01T12:14:43;12.88;;;6.40;;
31638;SDS011;18248;51.522;7.020;2023-06-01T12:17:45;21.30;;;6.10;;
31638;SDS011;18248;51.522;7.020;2023-06-01T12:20:48;15.57;;;7.32;;
31638;SDS011;18248;51.522;7.020;2023-06-01T12:23:50;17.73;;;5.95;;
31638;SDS011;18248;51.522;7.020;2023-06-01T12:26:51;13.52;;;5.85;;
31638;SDS011;18248;51.522;7.020;2023-06-01T12:29:51;22.40;;;7.97;;
31638;SDS011;18248;51.522;7.020;2023-06-01T12:32:49;16.88;;;6.55;;
31638;SDS011;18248;51.522;7.020;2023-06-01T12:35:49;13.10;;;5.60;;
31638;SDS011;18248;51.522;7.020;2023-06-01T12:38:52;12.60;;;6.38;;
31638;SDS011;18248;51.522;7.020;2023-06-01T12:41:50;13.13;;;6.82;;
31638;SDS011;18248;51.522;7.020;2023-06-01T12:44:52;16.10;;;7.43;;
31638;SDS011;18248;51.522;7.020;2023-06-01T12:47:52;11.98;;;6.22;;
31638;SDS011;18248;51.522;7.020;2023-06-01T12:50:51;13.10;;;6.30;;
31638;SDS011;18248;51.522;7.020;2023-06-01T12:53:49;12.07;;;6.97;;
31638;SDS011;18248;51.522;7.020;2023-06-01T12:56:49;21.25;;;7.03;;
31638;SDS011;18248;51.522;7.020;2023-06-01T12:59:49;16.52;;;6.45;;
31638;SDS011;18248;51.522;7.020;2023-06-01T13:02:47;12.48;;;5.40;;
31638;SDS011;18248;51.522;7.020;2023-06-01T13:05:47;13.40;;;7.15;;
31638;SDS011;18248;51.522;7.020;2023-06-01T13:08:47;10.32;;;6.32;;
31638;SDS011;18248;51.522;7.020;2023-06-01T13:11:46;13.73;;;7.85;;
31638;SDS011;18248;51.522;7.020;2023-06-01T13:14:47;16.92;;;6.97;;
31638;SDS011;18248;51.522;7.020;2023-06-01T13:17:47;13.00;;;6.28;;
31638;SDS011;18248;51.522;7.020;2023-06-01T13:20:46;17.50;;;6.50;;
31638;SDS011;18248;51.522;7.020;2023-06-01T13:23:45;12.10;;;6.05;;
31638;SDS011;18248;51.522;7.020;2023-06-01T13:26:45;13.02;;;5.03;;
31638;SDS011;18248;51.522;7.020;2023-06-01T13:29:43;14.98;;;7.45;;
31638;SDS011;18248;51.522;7.020;2023-06-01T13:32:45;10.23;;;5.25;;
31638;SDS011;18248;51.522;7.020;2023-06-01T13:35:43;12.57;;;6.43;;
31638;SDS011;18248;51.522;7.020;2023-06-01T13:38:42;9.93;;;5.72;;
31638;SDS011;18248;51.522;7.020;2023-06-01T13:41:41;11.68;;;6.65;;
31638;SDS011;18248;51.522;7.020;2023-06-01T13:44:40;12.95;;;5.80;;
31638;SDS011;18248;51.522;7.020;2023-06-01T13:47:43;10.13;;;5.72;;
31638;SDS011;18248;51.522;7.020;2023-06-01T13:50:42;12.57;;;6.00;;
31638;SDS011;18248;51.522;7.020;2023-06-01T13:53:41;14.50;;;6.35;;
31638;SDS011;18248;51.522;7.020;2023-06-01T13:56:39;12.18;;;5.63;;
31638;SDS011;18248;51.522;7.020;2023-06-01T13:59:38;12.50;;;6.75;;
31638;SDS011;18248;51.522;7.020;2023-06-01T14:02:37;7.20;;;5.25;;
31638;SDS011;18248;51.522;7.020;2023-06-01T14:05:35;10.38;;;5.43;;
31638;SDS011;18248;51.522;7.020;2023-06-01T14:08:34;10.57;;;5.88;;
31638;SDS011;18248;51.522;7.020;2023-06-01T14:11:32;9.60;;;6.25;;
31638;SDS011;18248;51.522;7.020;2023-06-01T14:14:31;11.57;;;5.43;;
31638;SDS011;18248;51.522;7.020;2023-06-01T14:17:30;13.30;;;5.70;;
31638;SDS011;18248;51.522;7.020;2023-06-01T14:20:29;12.73;;;6.82;;
31638;SDS011;18248;51.522;7.020;2023-06-01T14:23:28;12.50;;;6.13;;
31638;SDS011;18248;51.522;7.020;2023-06-01T14:26:27;9.20;;;4.88;;
31638;SDS011;18248;51.522;7.020;2023-06-01T14:29:29;10.88;;;6.03;;
31638;SDS011;18248;51.522;7.020;2023-06-01T14:32:28;12.57;;;6.90;;
31638;SDS011;18248;51.522;7.020;2023-06-01T14:39:22;13.63;;;5.65;;
31638;SDS011;18248;51.522;7.020;2023-06-01T14:42:20;9.65;;;5.18;;
31638;SDS011;18248;51.522;7.020;2023-06-01T14:45:19;9.18;;;4.72;;
31638;SDS011;18248;51.522;7.020;2023-06-01T14:48:22;10.90;;;6.00;;
31638;SDS011;18248;51.522;7.020;2023-06-01T14:51:24;12.18;;;5.45;;
31638;SDS011;18248;51.522;7.020;2023-06-01T14:54:23;10.85;;;4.50;;
31638;SDS011;18248;51.522;7.020;2023-06-01T14:57:21;9.68;;;4.88;;
31638;SDS011;18248;51.522;7.020;2023-06-01T15:00:21;9.68;;;4.85;;
31638;SDS011;18248;51.522;7.020;2023-06-01T15:03:19;14.15;;;5.72;;
31638;SDS011;18248;51.522;7.020;2023-06-01T15:06:19;9.68;;;5.82;;
31638;SDS011;18248;51.522;7.020;2023-06-01T15:09:18;8.77;;;5.50;;
31638;SDS011;18248;51.522;7.020;2023-06-01T15:12:17;12.88;;;5.60;;
31638;SDS011;18248;51.522;7.020;2023-06-01T15:15:15;11.13;;;5.20;;
31638;SDS011;18248;51.522;7.020;2023-06-01T15:18:14;12.93;;;5.57;;
31638;SDS011;18248;51.522;7.020;2023-06-01T15:21:12;9.20;;;4.60;;
31638;SDS011;18248;51.522;7.020;2023-06-01T15:24:11;13.75;;;5.43;;
31638;SDS011;18248;51.522;7.020;2023-06-01T15:27:10;11.32;;;5.30;;
31638;SDS011;18248;51.522;7.020;2023-06-01T15:30:09;8.98;;;4.45;;
31638;SDS011;18248;51.522;7.020;2023-06-01T15:33:09;9.65;;;4.75;;
31638;SDS011;18248;51.522;7.020;2023-06-01T15:36:08;11.90;;;4.97;;
31638;SDS011;18248;51.522;7.020;2023-06-01T15:39:06;12.45;;;5.93;;
31638;SDS011;18248;51.522;7.020;2023-06-01T15:42:06;10.38;;;5.68;;
31638;SDS011;18248;51.522;7.020;2023-06-01T15:45:07;12.35;;;6.10;;
31638;SDS011;18248;51.522;7.020;2023-06-01T15:48:06;13.25;;;5.95;;
31638;SDS011;18248;51.522;7.020;2023-06-01T15:51:05;12.35;;;4.88;;
31638;SDS011;18248;51.522;7.020;2023-06-01T15:54:05;8.60;;;4.97;;
31638;SDS011;18248;51.522;7.020;2023-06-01T15:57:03;12.00;;;5.57;;
31638;SDS011;18248;51.522;7.020;2023-06-01T16:00:03;9.85;;;4.68;;
31638;SDS011;18248;51.522;7.020;2023-06-01T16:03:02;12.00;;;5.00;;
31638;SDS011;18248;51.522;7.020;2023-06-01T16:06:02;13.40;;;5.57;;
31638;SDS011;18248;51.522;7.020;2023-06-01T16:09:03;11.13;;;4.75;;
31638;SDS011;18248;51.522;7.020;2023-06-01T16:12:01;15.25;;;5.50;;
31638;SDS011;18248;51.522;7.020;2023-06-01T16:15:00;10.63;;;4.47;;
31638;SDS011;18248;51.522;7.020;2023-06-01T16:17:59;13.65;;;5.20;;
31638;SDS011;18248;51.522;7.020;2023-06-01T16:20:57;14.13;;;5.15;;
31638;SDS011;18248;51.522;7.020;2023-06-01T16:23:57;13.45;;;5.05;;
31638;SDS011;18248;51.522;7.020;2023-06-01T16:26:56;10.70;;;5.00;;
31638;SDS011;18248;51.522;7.020;2023-06-01T16:29:58;9.95;;;4.38;;
31638;SDS011;18248;51.522;7.020;2023-06-01T16:32:56;17.02;;;5.35;;
31638;SDS011;18248;51.522;7.020;2023-06-01T16:35:55;11.95;;;4.75;;
31638;SDS011;18248;51.522;7.020;2023-06-01T16:38:53;10.75;;;4.72;;
31638;SDS011;18248;51.522;7.020;2023-06-01T16:41:52;10.85;;;3.95;;
31638;SDS011;18248;51.522;7.020;2023-06-01T16:44:51;8.13;;;4.10;;
31638;SDS011;18248;51.522;7.020;2023-06-01T16:47:49;10.07;;;4.40;;
31638;SDS011;18248;51.522;7.020;2023-06-01T16:50:48;9.48;;;4.07;;
31638;SDS011;18248;51.522;7.020;2023-06-01T16:53:48;8.52;;;3.25;;
31638;SDS011;18248;51.522;7.020;2023-06-01T16:56:48;5.93;;;3.20;;
31638;SDS011;18248;51.522;7.020;2023-06-01T16:59:49;5.30;;;2.65;;
31638;SDS011;18248;51.522;7.020;2023-06-01T17:02:47;11.98;;;3.38;;
31638;SDS011;18248;51.522;7.020;2023-06-01T17:05:46;7.80;;;3.35;;
31638;SDS011;18248;51.522;7.020;2023-06-01T17:08:44;9.57;;;3.38;;
31638;SDS011;18248;51.522;7.020;2023-06-01T17:11:43;8.50;;;4.18;;
31638;SDS011;18248;51.522;7.020;2023-06-01T17:14:42;7.65;;;3.22;;
31638;SDS011;18248;51.522;7.020;2023-06-01T17:17:44;8.52;;;3.50;;
31638;SDS011;18248;51.522;7.020;2023-06-01T17:20:43;7.90;;;3.35;;
31638;SDS011;18248;51.522;7.020;2023-06-01T17:23:41;5.50;;;3.15;;
31638;SDS011;18248;51.522;7.020;2023-06-01T17:26:40;7.03;;;4.20;;
31638;SDS011;18248;51.522;7.020;2023-06-01T17:29:38;8.48;;;3.83;;
31638;SDS011;18248;51.522;7.020;2023-06-01T17:32:37;7.13;;;4.45;;
31638;SDS011;18248;51.522;7.020;2023-06-01T17:35:36;10.02;;;3.92;;
31638;SDS011;18248;51.522;7.020;2023-06-01T17:38:36;13.82;;;4.35;;
31638;SDS011;18248;51.522;7.020;2023-06-01T17:41:34;11.68;;;4.30;;
31638;SDS011;18248;51.522;7.020;2023-06-01T17:44:33;9.02;;;4.28;;
31638;SDS011;18248;51.522;7.020;2023-06-01T17:47:32;8.82;;;4.22;;
31638;SDS011;18248;51.522;7.020;2023-06-01T17:50:30;13.43;;;4.93;;
31638;SDS011;18248;51.522;7.020;2023-06-01T17:53:29;12.30;;;4.63;;
31638;SDS011;18248;51.522;7.020;2023-06-01T17:56:30;8.90;;;4.72;;
31638;SDS011;18248;51.522;7.020;2023-06-01T17:59:29;10.90;;;4.40;;
31638;SDS011;18248;51.522;7.020;2023-06-01T18:02:27;11.55;;;4.53;;
31638;SDS011;18248;51.522;7.020;2023-06-01T18:05:26;12.80;;;4.63;;
31638;SDS011;18248;51.522;7.020;2023-06-01T18:08:24;7.85;;;4.32;;
31638;SDS011;18248;51.522;7.020;2023-06-01T18:11:23;10.02;;;3.80;;